createdAt,value
2018-08-11T00:00:44.452Z,0.00
2018-08-11T00:01:45.216Z,0.00
2018-08-11T00:02:46.017Z,0.00
2018-08-11T00:03:46.788Z,0.00
2018-08-11T00:04:47.568Z,0.00
2018-08-11T00:05:48.332Z,0.00
2018-08-11T00:06:49.104Z,0.00
2018-08-11T00:07:49.909Z,0.00
2018-08-11T00:08:50.677Z,0.00
2018-08-11T00:09:51.461Z,0.00
2018-08-11T00:10:52.235Z,0.00
2018-08-11T00:11:53.009Z,0.00
2018-08-11T00:12:53.809Z,0.00
2018-08-11T00:13:54.578Z,0.00
2018-08-11T00:14:55.355Z,0.00
2018-08-11T00:15:56.124Z,0.00
2018-08-11T00:16:56.910Z,0.00
2018-08-11T00:17:57.705Z,0.00
2018-08-11T00:18:58.476Z,0.00
2018-08-11T00:19:59.246Z,0.00
2018-08-11T00:21:00.128Z,0.00
2018-08-11T00:21:59.824Z,0.00
2018-08-11T00:23:01.622Z,0.00
2018-08-11T00:24:02.400Z,0.00
2018-08-11T00:25:03.171Z,0.00
2018-08-11T00:26:03.940Z,0.00
2018-08-11T00:27:04.712Z,0.00
2018-08-11T00:28:05.514Z,0.00
2018-08-11T00:29:06.289Z,0.00
2018-08-11T00:30:07.154Z,0.00
2018-08-11T00:31:06.848Z,0.00
2018-08-11T00:32:08.623Z,0.00
2018-08-11T00:33:09.416Z,0.00
2018-08-11T00:34:10.189Z,0.00
2018-08-11T00:35:10.963Z,0.00
2018-08-11T00:36:11.734Z,0.00
2018-08-11T00:37:12.504Z,0.00
2018-08-11T00:38:13.306Z,0.00
2018-08-11T00:39:14.077Z,0.00
2018-08-11T00:40:14.852Z,0.00
2018-08-11T00:41:15.624Z,0.00
2018-08-11T00:42:16.395Z,0.00
2018-08-11T00:43:17.206Z,0.00
2018-08-11T00:44:17.965Z,0.00
2018-08-11T00:45:18.738Z,0.00
2018-08-11T00:46:19.509Z,0.00
2018-08-11T00:47:20.286Z,0.00
2018-08-11T00:48:21.081Z,0.00
2018-08-11T00:49:21.873Z,0.00
2018-08-11T00:50:21.628Z,0.00
2018-08-11T00:51:23.410Z,0.00
2018-08-11T00:52:24.182Z,0.00
2018-08-11T00:53:24.970Z,0.00
2018-08-11T00:54:25.739Z,0.00
2018-08-11T00:55:26.515Z,0.00
2018-08-11T00:56:27.290Z,0.00
2018-08-11T00:57:28.057Z,0.00
2018-08-11T00:58:28.854Z,0.00
2018-08-11T00:59:29.628Z,0.00
2018-08-11T01:00:30.402Z,0.00
2018-08-11T01:01:31.181Z,0.00
2018-08-11T01:02:31.955Z,0.00
2018-08-11T01:03:32.755Z,0.00
2018-08-11T01:04:33.527Z,0.00
2018-08-11T01:05:35.296Z,0.00
2018-08-11T01:06:35.073Z,0.00
2018-08-11T01:07:35.841Z,0.00
2018-08-11T01:08:36.647Z,0.00
2018-08-11T01:09:37.411Z,0.00
2018-08-11T01:10:38.188Z,0.00
2018-08-11T01:11:38.963Z,0.00
2018-08-11T01:12:39.788Z,0.00
2018-08-11T01:13:39.529Z,0.00
2018-08-11T01:14:41.304Z,0.00
2018-08-11T01:15:42.078Z,0.00
2018-08-11T01:16:42.850Z,0.00
2018-08-11T01:17:43.625Z,0.00
2018-08-11T01:18:44.421Z,0.00
2018-08-11T01:19:45.200Z,0.00
2018-08-11T01:20:45.965Z,0.00
2018-08-11T01:21:46.748Z,0.00
2018-08-11T01:22:46.516Z,0.00
2018-08-11T01:23:48.330Z,0.00
2018-08-11T01:24:49.474Z,0.00
2018-08-11T01:32:46.612Z,0.00
2018-08-11T01:33:47.382Z,0.00
2018-08-11T01:34:48.179Z,0.00
2018-08-11T01:35:48.953Z,0.00
2018-08-11T01:36:49.726Z,0.00
2018-08-11T01:37:51.495Z,0.00
2018-08-11T01:38:51.269Z,0.00
2018-08-11T01:39:52.058Z,0.00
2018-08-11T01:40:52.832Z,0.00
2018-08-11T01:41:53.602Z,0.00
2018-08-11T01:42:54.374Z,0.00
2018-08-11T01:43:56.145Z,0.00
2018-08-11T01:44:55.949Z,0.00
2018-08-11T01:45:56.717Z,0.00
2018-08-11T01:46:57.488Z,0.00
2018-08-11T01:47:58.261Z,0.00
2018-08-11T01:48:59.032Z,0.00
2018-08-11T01:49:59.830Z,0.00
2018-08-11T01:51:00.603Z,0.00
2018-08-11T01:52:01.376Z,0.00
2018-08-11T01:53:02.150Z,0.00
2018-08-11T01:54:02.921Z,0.00
2018-08-11T01:55:04.716Z,0.00
2018-08-11T01:56:04.576Z,0.00
2018-08-11T01:57:04.283Z,0.00
2018-08-11T01:58:06.057Z,0.00
2018-08-11T01:59:06.830Z,0.00
2018-08-11T02:00:07.628Z,0.00
2018-08-11T02:01:08.399Z,0.00
2018-08-11T02:02:09.173Z,0.00
2018-08-11T02:03:09.945Z,0.00
2018-08-11T02:04:10.716Z,0.00
2018-08-11T02:05:11.510Z,0.00
2018-08-11T02:06:12.281Z,0.00
2018-08-11T02:07:13.054Z,0.00
2018-08-11T02:08:13.872Z,0.00
2018-08-11T02:09:13.598Z,0.00
2018-08-11T02:10:15.398Z,0.00
2018-08-11T02:11:16.202Z,0.00
2018-08-11T02:12:15.939Z,0.00
2018-08-11T02:13:17.713Z,0.00
2018-08-11T02:14:18.488Z,0.00
2018-08-11T02:15:18.286Z,0.00
2018-08-11T02:16:20.057Z,0.00
2018-08-11T02:17:20.831Z,0.00
2018-08-11T02:18:21.603Z,0.00
2018-08-11T02:19:22.380Z,0.00
2018-08-11T02:20:23.180Z,0.00
2018-08-11T02:21:23.951Z,0.00
2018-08-11T02:22:24.752Z,0.00
2018-08-11T02:23:25.507Z,0.00
2018-08-11T02:24:26.279Z,0.00
2018-08-11T02:25:27.078Z,0.00
2018-08-11T02:26:27.851Z,0.00
2018-08-11T02:27:29.620Z,0.00
2018-08-11T02:28:29.399Z,0.00
2018-08-11T02:29:30.169Z,0.00
2018-08-11T02:30:30.968Z,0.00
2018-08-11T02:31:31.738Z,0.00
2018-08-11T02:32:32.514Z,0.00
2018-08-11T02:33:33.294Z,0.00
2018-08-11T02:34:34.058Z,0.00
2018-08-11T02:35:34.952Z,0.00
2018-08-11T02:36:34.648Z,0.00
2018-08-11T02:37:36.427Z,0.00
2018-08-11T02:38:37.191Z,0.00
2018-08-11T02:39:37.971Z,0.00
2018-08-11T02:40:38.770Z,0.00
2018-08-11T02:41:39.544Z,0.00
2018-08-11T02:42:40.313Z,0.00
2018-08-11T02:43:41.085Z,0.00
2018-08-11T02:44:41.870Z,0.00
2018-08-11T02:45:42.660Z,0.00
2018-08-11T02:46:43.430Z,0.00
2018-08-11T02:47:44.207Z,0.00
2018-08-11T02:48:44.981Z,0.00
2018-08-11T02:49:45.758Z,0.00
2018-08-11T02:50:46.551Z,0.00
2018-08-11T02:51:47.332Z,0.00
2018-08-11T02:52:48.114Z,0.00
2018-08-11T02:53:48.884Z,0.00
2018-08-11T02:54:49.659Z,0.00
2018-08-11T02:55:50.460Z,0.00
2018-08-11T02:56:51.233Z,0.00
2018-08-11T02:57:52.008Z,0.00
2018-08-11T02:58:52.778Z,0.00
2018-08-11T02:59:53.553Z,0.00
2018-08-11T03:00:54.361Z,0.00
2018-08-11T03:01:55.128Z,0.00
2018-08-11T03:02:55.906Z,0.00
2018-08-11T03:03:56.676Z,0.00
2018-08-11T03:04:57.456Z,0.00
2018-08-11T03:05:58.252Z,0.00
2018-08-11T03:06:59.032Z,0.00
2018-08-11T03:07:59.800Z,0.00
2018-08-11T03:09:00.575Z,0.00
2018-08-11T03:10:01.350Z,0.00
2018-08-11T03:11:02.148Z,0.00
2018-08-11T03:12:02.914Z,0.00
2018-08-11T03:13:03.685Z,0.00
2018-08-11T03:14:04.571Z,0.05
2018-08-11T03:15:04.235Z,0.05
2018-08-11T03:16:06.032Z,0.05
2018-08-11T03:17:06.807Z,0.05
2018-08-11T03:18:07.595Z,0.05
2018-08-11T03:19:08.356Z,0.05
2018-08-11T03:20:09.131Z,0.05
2018-08-11T03:21:09.928Z,0.05
2018-08-11T03:22:09.702Z,0.09
2018-08-11T03:23:11.476Z,0.09
2018-08-11T03:24:12.253Z,0.14
2018-08-11T03:25:13.028Z,0.14
2018-08-11T03:26:15.537Z,0.18
2018-08-11T03:33:04.766Z,0.54
2018-08-11T03:34:06.533Z,0.58
2018-08-11T03:35:06.308Z,0.72
2018-08-11T03:36:07.075Z,0.86
2018-08-11T03:37:07.870Z,0.99
2018-08-11T03:38:08.640Z,1.17
2018-08-11T03:39:09.411Z,1.44
2018-08-11T03:40:10.187Z,1.71
2018-08-11T03:41:11.042Z,1.93
2018-08-11T03:42:10.764Z,2.25
2018-08-11T03:43:12.532Z,2.70
2018-08-11T03:44:13.305Z,3.19
2018-08-11T03:45:14.083Z,3.73
2018-08-11T03:46:14.848Z,4.45
2018-08-11T03:47:15.646Z,5.18
2018-08-11T03:48:16.416Z,5.94
2018-08-11T03:49:17.188Z,7.16
2018-08-11T03:50:17.964Z,8.55
2018-08-11T03:51:18.739Z,10.13
2018-08-11T03:52:19.534Z,11.88
2018-08-11T03:53:20.303Z,13.86
2018-08-11T03:54:21.077Z,16.02
2018-08-11T03:55:21.847Z,18.63
2018-08-11T03:56:22.619Z,21.60
2018-08-11T03:57:23.417Z,24.30
2018-08-11T03:58:24.190Z,27.18
2018-08-11T03:59:24.969Z,30.78
2018-08-11T04:00:25.739Z,34.74
2018-08-11T04:01:27.510Z,40.14
2018-08-11T04:02:27.319Z,45.72
2018-08-11T04:03:28.074Z,51.12
2018-08-11T04:04:28.850Z,57.24
2018-08-11T04:05:29.623Z,61.92
2018-08-11T04:06:30.438Z,65.52
2018-08-11T04:07:30.190Z,64.80
2018-08-11T04:08:31.962Z,58.68
2018-08-11T04:09:32.732Z,49.32
2018-08-11T04:10:33.506Z,44.64
2018-08-11T04:11:34.277Z,44.46
2018-08-11T04:12:35.075Z,46.08
2018-08-11T04:13:35.846Z,52.56
2018-08-11T04:14:36.618Z,71.28
2018-08-11T04:15:37.390Z,98.64
2018-08-11T04:16:38.161Z,126.72
2018-08-11T04:17:38.962Z,149.04
2018-08-11T04:18:39.733Z,164.88
2018-08-11T04:19:40.591Z,175.68
2018-08-11T04:20:40.295Z,179.28
2018-08-11T04:21:42.068Z,176.40
2018-08-11T04:22:42.870Z,171.36
2018-08-11T04:23:43.639Z,172.08
2018-08-11T04:24:44.417Z,182.88
2018-08-11T04:25:45.188Z,203.04
2018-08-11T04:26:45.960Z,227.52
2018-08-11T04:27:46.758Z,240.48
2018-08-11T04:28:47.538Z,249.12
2018-08-11T04:29:48.304Z,264.96
2018-08-11T04:30:49.074Z,273.60
2018-08-11T04:31:49.846Z,283.68
2018-08-11T04:32:50.645Z,292.32
2018-08-11T04:33:51.419Z,305.28
2018-08-11T04:34:52.192Z,324.00
2018-08-11T04:35:52.969Z,339.84
2018-08-11T04:36:53.742Z,344.16
2018-08-11T04:37:54.542Z,345.60
2018-08-11T04:38:55.318Z,365.76
2018-08-11T04:39:56.093Z,403.20
2018-08-11T04:40:56.867Z,452.16
2018-08-11T04:41:57.712Z,506.88
2018-08-11T04:42:57.444Z,558.72
2018-08-11T04:43:59.217Z,613.44
2018-08-11T04:44:59.994Z,665.28
2018-08-11T04:46:00.770Z,731.52
2018-08-11T04:47:01.542Z,806.40
2018-08-11T04:48:02.342Z,881.28
2018-08-11T04:49:03.121Z,944.64
2018-08-11T04:50:03.893Z,979.20
2018-08-11T04:51:04.671Z,1002.24
2018-08-11T04:52:05.442Z,1077.12
2018-08-11T04:53:05.242Z,1088.64
2018-08-11T04:54:07.022Z,1105.92
2018-08-11T04:55:07.792Z,1140.48
2018-08-11T04:56:08.572Z,1163.52
2018-08-11T04:57:09.346Z,1186.56
2018-08-11T04:58:10.205Z,1221.12
2018-08-11T04:59:09.922Z,1244.16
2018-08-11T05:00:11.694Z,1284.48
2018-08-11T05:01:12.466Z,1347.84
2018-08-11T05:02:13.244Z,1353.60
2018-08-11T05:03:14.046Z,1313.28
2018-08-11T05:04:14.819Z,1278.72
2018-08-11T05:05:15.595Z,1324.80
2018-08-11T05:06:16.373Z,1399.68
2018-08-11T05:07:17.144Z,1486.08
2018-08-11T05:08:17.943Z,1589.76
2018-08-11T05:09:18.728Z,1716.48
2018-08-11T05:10:19.489Z,1774.08
2018-08-11T05:11:20.267Z,1762.56
2018-08-11T05:12:21.037Z,1751.04
2018-08-11T05:13:21.840Z,1751.04
2018-08-11T05:14:22.613Z,1820.16
2018-08-11T05:15:23.473Z,1958.40
2018-08-11T05:16:23.171Z,2050.56
2018-08-11T05:17:24.940Z,2131.20
2018-08-11T05:18:25.738Z,2292.48
2018-08-11T05:19:26.513Z,2488.32
2018-08-11T05:20:27.289Z,2592.00
2018-08-11T05:21:28.061Z,2626.56
2018-08-11T05:22:28.833Z,2603.52
2018-08-11T05:23:29.636Z,2592.00
2018-08-11T05:24:30.497Z,2615.04
2018-08-11T05:25:30.193Z,2661.12
2018-08-11T05:26:32.070Z,2730.24
2018-08-11T05:27:33.293Z,2753.28
2018-08-11T05:28:33.495Z,2833.92
2018-08-11T05:29:32.684Z,2949.12
2018-08-11T05:30:32.863Z,3248.64
2018-08-11T05:30:41.277Z,3294.72
2018-08-11T05:31:42.047Z,5621.76
2018-08-11T05:32:42.823Z,7557.12
2018-08-11T05:33:43.618Z,5137.92
2018-08-11T05:34:44.393Z,5506.56
2018-08-11T05:35:45.170Z,9676.80
2018-08-11T05:36:45.939Z,9907.20
2018-08-11T05:37:46.717Z,5114.88
2018-08-11T05:38:47.519Z,10321.92
2018-08-11T05:39:48.297Z,10506.24
2018-08-11T05:40:49.065Z,9861.12
2018-08-11T05:41:50.836Z,11013.12
2018-08-11T05:42:50.611Z,11888.64
2018-08-11T05:43:51.408Z,12165.12
2018-08-11T05:44:52.180Z,10967.04
2018-08-11T05:45:52.957Z,8202.24
2018-08-11T05:46:53.725Z,13547.52
2018-08-11T05:47:54.497Z,9953.28
2018-08-11T05:48:55.295Z,11381.76
2018-08-11T05:49:56.069Z,10644.48
2018-08-11T05:50:56.841Z,13271.04
2018-08-11T05:51:57.618Z,5253.12
2018-08-11T05:52:58.389Z,4677.12
2018-08-11T05:53:59.187Z,4377.60
2018-08-11T05:54:59.957Z,4193.28
2018-08-11T05:56:00.730Z,4446.72
2018-08-11T05:57:01.504Z,17141.76
2018-08-11T05:58:02.285Z,15943.68
2018-08-11T05:59:03.071Z,13271.04
2018-08-11T06:00:03.847Z,9077.76
2018-08-11T06:01:04.618Z,14100.48
2018-08-11T06:02:05.391Z,15022.08
2018-08-11T06:03:06.169Z,17879.04
2018-08-11T06:04:07.082Z,17602.56
2018-08-11T06:05:06.740Z,9999.36
2018-08-11T06:06:08.514Z,19537.92
2018-08-11T06:07:09.290Z,9953.28
2018-08-11T06:08:10.061Z,15114.24
2018-08-11T06:09:10.867Z,10275.84
2018-08-11T06:10:11.631Z,16588.80
2018-08-11T06:11:12.404Z,16680.96
2018-08-11T06:12:13.178Z,15390.72
2018-08-11T06:13:13.948Z,16220.16
2018-08-11T06:14:14.745Z,16404.48
2018-08-11T06:15:15.517Z,14561.28
2018-08-11T06:16:16.296Z,19906.56
2018-08-11T06:17:17.067Z,20275.20
2018-08-11T06:18:17.846Z,20828.16
2018-08-11T06:19:18.643Z,21565.44
2018-08-11T06:20:19.417Z,22855.68
2018-08-11T06:21:20.187Z,22579.20
2018-08-11T06:22:20.961Z,23777.28
2018-08-11T06:23:21.739Z,21841.92
2018-08-11T06:24:22.627Z,9169.92
2018-08-11T06:25:22.326Z,10137.60
2018-08-11T06:26:24.099Z,7004.16
2018-08-11T06:27:24.870Z,5391.36
2018-08-11T06:28:25.644Z,6220.80
2018-08-11T06:29:26.450Z,8294.40
2018-08-11T06:30:27.228Z,11013.12
2018-08-11T06:31:28.103Z,11888.64
2018-08-11T06:32:27.776Z,23040.00
2018-08-11T06:33:29.550Z,21934.08
2018-08-11T06:34:30.347Z,24883.20
2018-08-11T06:35:31.124Z,24514.56
2018-08-11T06:36:31.898Z,24883.20
2018-08-11T06:37:32.671Z,25620.48
2018-08-11T06:38:33.447Z,25620.48
2018-08-11T06:39:34.246Z,25436.16
2018-08-11T06:40:35.106Z,23961.60
2018-08-11T06:41:34.800Z,23500.80
2018-08-11T06:42:36.575Z,21104.64
2018-08-11T06:43:37.348Z,20275.20
2018-08-11T06:44:38.147Z,20275.20
2018-08-11T06:45:38.923Z,20828.16
2018-08-11T06:46:39.802Z,21104.64
2018-08-11T06:47:39.470Z,21473.28
2018-08-11T06:48:40.246Z,20736.00
2018-08-11T06:49:42.049Z,21749.76
2018-08-11T06:50:42.823Z,20183.04
2018-08-11T06:51:43.604Z,21196.80
2018-08-11T06:52:44.378Z,21196.80
2018-08-11T06:53:45.240Z,22579.20
2018-08-11T06:54:44.958Z,22947.84
2018-08-11T06:55:46.733Z,22394.88
2018-08-11T06:56:47.505Z,23224.32
2018-08-11T06:57:48.279Z,22947.84
2018-08-11T06:58:49.050Z,23040.00
2018-08-11T06:59:49.851Z,23316.48
2018-08-11T07:00:50.624Z,24330.24
2018-08-11T07:01:51.396Z,26726.40
2018-08-11T07:02:52.170Z,26910.72
2018-08-11T07:03:52.971Z,26726.40
2018-08-11T07:04:53.747Z,27095.04
2018-08-11T07:05:54.514Z,26357.76
2018-08-11T07:06:55.364Z,28569.60
2018-08-11T07:07:55.060Z,17326.08
2018-08-11T07:08:56.830Z,31334.40
2018-08-11T07:09:57.628Z,31334.40
2018-08-11T07:10:58.403Z,31518.72
2018-08-11T07:11:59.188Z,27832.32
2018-08-11T07:12:59.949Z,31703.04
2018-08-11T07:14:00.730Z,31703.04
2018-08-11T07:15:01.525Z,30412.80
2018-08-11T07:16:02.296Z,32256.00
2018-08-11T07:17:03.070Z,28569.60
2018-08-11T07:18:03.847Z,32071.68
2018-08-11T07:19:04.621Z,31703.04
2018-08-11T07:20:05.428Z,30781.44
2018-08-11T07:21:06.205Z,29122.56
2018-08-11T07:22:06.974Z,26726.40
2018-08-11T07:23:07.753Z,25804.80
2018-08-11T07:24:08.625Z,26173.44
2018-08-11T07:24:53.859Z,25804.80
2018-08-11T07:25:53.587Z,27463.68
2018-08-11T07:26:55.353Z,27832.32
2018-08-11T07:27:56.125Z,28016.64
2018-08-11T07:28:56.895Z,28200.96
2018-08-11T07:29:57.669Z,28016.64
2018-08-11T07:30:58.469Z,27648.00
2018-08-11T07:31:59.237Z,23592.96
2018-08-11T07:33:00.010Z,18524.16
2018-08-11T07:34:00.787Z,30044.16
2018-08-11T07:35:01.562Z,30597.12
2018-08-11T07:36:02.428Z,30228.48
2018-08-11T07:37:02.141Z,29306.88
2018-08-11T07:38:03.909Z,28938.24
2018-08-11T07:39:03.694Z,30044.16
2018-08-11T07:40:04.480Z,28569.60
2018-08-11T07:41:05.277Z,29122.56
2018-08-11T07:42:07.050Z,28938.24
2018-08-11T07:43:07.822Z,29306.88
2018-08-11T07:44:08.594Z,29122.56
2018-08-11T07:45:09.367Z,29859.84
2018-08-11T07:46:10.168Z,30412.80
2018-08-11T07:47:10.940Z,30412.80
2018-08-11T07:48:11.720Z,30228.48
2018-08-11T07:49:12.488Z,30781.44
2018-08-11T07:50:13.298Z,31887.36
2018-08-11T07:51:14.075Z,30965.76
2018-08-11T07:52:14.842Z,30412.80
2018-08-11T07:53:15.615Z,33914.88
2018-08-11T07:54:16.391Z,32256.00
2018-08-11T07:55:17.164Z,32808.96
2018-08-11T07:56:17.972Z,32624.64
2018-08-11T07:57:18.742Z,31887.36
2018-08-11T07:58:19.517Z,32440.32
2018-08-11T07:59:21.284Z,34283.52
2018-08-11T08:00:21.059Z,23961.60
2018-08-11T08:01:21.913Z,34467.84
2018-08-11T08:02:21.628Z,32624.64
2018-08-11T08:03:23.402Z,17694.72
2018-08-11T08:04:23.181Z,35942.40
2018-08-11T08:05:24.951Z,29491.20
2018-08-11T08:06:25.745Z,35758.08
2018-08-11T08:07:25.522Z,17233.92
2018-08-11T08:08:27.291Z,13271.04
2018-08-11T08:09:28.065Z,38522.88
2018-08-11T08:10:28.837Z,12441.60
2018-08-11T08:11:29.636Z,19077.12
2018-08-11T08:12:30.405Z,10736.64
2018-08-11T08:13:31.186Z,10368.00
2018-08-11T08:14:31.949Z,15206.40
2018-08-11T08:15:32.723Z,11151.36
2018-08-11T08:16:33.530Z,31887.36
2018-08-11T08:17:34.314Z,13916.16
2018-08-11T08:18:35.077Z,14008.32
2018-08-11T08:19:35.849Z,20643.84
2018-08-11T08:20:36.621Z,9999.36
2018-08-11T08:21:37.421Z,9676.80
2018-08-11T08:22:38.193Z,10183.68
2018-08-11T08:23:38.972Z,38338.56
2018-08-11T08:24:39.740Z,31334.40
2018-08-11T08:25:40.515Z,36311.04
2018-08-11T08:26:41.340Z,37601.28
2018-08-11T08:27:42.094Z,9031.68
2018-08-11T08:28:42.866Z,8017.92
2018-08-11T08:29:43.643Z,7649.28
2018-08-11T08:30:44.416Z,42024.96
2018-08-11T08:31:45.218Z,7925.76
2018-08-11T08:32:46.080Z,36864.00
2018-08-11T08:33:45.820Z,39813.12
2018-08-11T08:34:46.548Z,36495.36
2018-08-11T08:35:48.321Z,39997.44
2018-08-11T08:36:49.123Z,43315.20
2018-08-11T08:37:49.891Z,40734.72
2018-08-11T08:38:50.674Z,43868.16
2018-08-11T08:39:51.449Z,44052.48
2018-08-11T08:40:52.220Z,8478.72
2018-08-11T08:41:53.087Z,44052.48
2018-08-11T08:42:52.800Z,47185.92
2018-08-11T08:43:54.575Z,47923.20
2018-08-11T08:44:55.345Z,28200.96
2018-08-11T08:45:56.117Z,48660.48
2018-08-11T08:46:56.916Z,50872.32
2018-08-11T08:47:57.695Z,51609.60
2018-08-11T08:48:58.468Z,48291.84
2018-08-11T08:49:59.245Z,14469.12
2018-08-11T08:51:00.024Z,13731.84
2018-08-11T08:52:00.825Z,13086.72
2018-08-11T08:53:01.592Z,13455.36
2018-08-11T08:54:02.370Z,8985.60
2018-08-11T08:55:03.141Z,6773.76
2018-08-11T08:56:03.956Z,5368.32
2018-08-11T08:57:04.727Z,4239.36
2018-08-11T08:58:05.517Z,4216.32
2018-08-11T08:59:06.350Z,5253.12
2018-08-11T09:00:06.051Z,6497.28
2018-08-11T09:01:07.827Z,7280.64
2018-08-11T09:02:08.623Z,8017.92
2018-08-11T09:03:09.403Z,36126.72
2018-08-11T09:04:10.179Z,51609.60
2018-08-11T09:05:10.950Z,49029.12
2018-08-11T09:06:11.728Z,51978.24
2018-08-11T09:07:12.528Z,6405.12
2018-08-11T09:08:13.301Z,51978.24
2018-08-11T09:09:14.078Z,50503.68
2018-08-11T09:10:14.851Z,51240.96
2018-08-11T09:11:15.632Z,52715.52
2018-08-11T09:12:16.432Z,55664.64
2018-08-11T09:13:17.197Z,57507.84
2018-08-11T09:14:17.970Z,57876.48
2018-08-11T09:15:18.746Z,58613.76
2018-08-11T09:16:19.530Z,16312.32
2018-08-11T09:17:19.328Z,13363.20
2018-08-11T09:18:21.112Z,14837.76
2018-08-11T09:19:21.921Z,18892.80
2018-08-11T09:20:21.656Z,56033.28
2018-08-11T09:21:23.425Z,53821.44
2018-08-11T09:22:24.225Z,48660.48
2018-08-11T09:23:25.363Z,53084.16
2018-08-11T09:24:25.567Z,51978.24
2018-08-11T09:25:26.119Z,52346.88
2018-08-11T09:26:31.754Z,52715.52
2018-08-11T09:27:33.549Z,53084.16
2018-08-11T09:28:34.326Z,52346.88
2018-08-11T09:29:35.097Z,51609.60
2018-08-11T09:30:35.878Z,50872.32
2018-08-11T09:31:36.651Z,36126.72
2018-08-11T09:32:37.882Z,43499.52
2018-08-11T09:33:37.650Z,52715.52
2018-08-11T09:34:38.423Z,18892.80
2018-08-11T09:35:39.193Z,13824.00
2018-08-11T09:36:39.964Z,42946.56
2018-08-11T09:37:40.761Z,60825.60
2018-08-11T09:38:41.540Z,60088.32
2018-08-11T09:39:42.308Z,58982.40
2018-08-11T09:40:43.078Z,52715.52
2018-08-11T09:41:43.849Z,52715.52
2018-08-11T09:42:44.659Z,52346.88
2018-08-11T09:43:45.430Z,49029.12
2018-08-11T09:44:46.200Z,9262.08
2018-08-11T09:45:47.055Z,11381.76
2018-08-11T09:46:46.747Z,23592.96
2018-08-11T09:47:48.542Z,63774.72
2018-08-11T09:48:50.368Z,15114.24
2018-08-11T09:49:49.088Z,13824.00
2018-08-11T09:50:50.863Z,13916.16
2018-08-11T09:51:51.635Z,51609.60
2018-08-11T09:52:52.445Z,64880.64
2018-08-11T09:53:53.218Z,15943.68
2018-08-11T09:54:53.987Z,17233.92
2018-08-11T09:55:54.758Z,13086.72
2018-08-11T09:56:55.542Z,9676.80
2018-08-11T09:57:56.341Z,8939.52
2018-08-11T09:58:57.111Z,9216.00
2018-08-11T09:59:57.888Z,10321.92
2018-08-11T10:00:58.660Z,11980.80
2018-08-11T10:02:00.429Z,19998.72
2018-08-11T10:03:00.229Z,13178.88
2018-08-11T10:04:01.004Z,12441.60
2018-08-11T10:05:01.802Z,19353.60
2018-08-11T10:06:02.542Z,11197.44
2018-08-11T10:07:03.314Z,14376.96
2018-08-11T10:08:04.115Z,11750.40
2018-08-11T10:09:04.886Z,39628.80
2018-08-11T10:10:05.681Z,15114.24
2018-08-11T10:11:06.451Z,16404.48
2018-08-11T10:12:07.222Z,41472.00
2018-08-11T10:13:08.019Z,58245.12
2018-08-11T10:14:08.795Z,67829.76
2018-08-11T10:15:09.566Z,17418.24
2018-08-11T10:16:10.343Z,68198.40
2018-08-11T10:17:11.115Z,19077.12
2018-08-11T10:18:11.944Z,16035.84
2018-08-11T10:19:12.716Z,18800.64
2018-08-11T10:20:13.488Z,13639.68
2018-08-11T10:21:14.268Z,17786.88
2018-08-11T10:22:15.041Z,11013.12
2018-08-11T10:23:15.851Z,10183.68
2018-08-11T10:24:16.622Z,10321.92
2018-08-11T10:25:17.401Z,10275.84
2018-08-11T10:26:18.171Z,9630.72
2018-08-11T10:27:18.946Z,8847.36
2018-08-11T10:28:19.745Z,8570.88
2018-08-11T10:29:20.527Z,8386.56
2018-08-11T10:30:21.300Z,7971.84
2018-08-11T10:31:22.070Z,7833.60
2018-08-11T10:32:22.846Z,8156.16
2018-08-11T10:33:23.651Z,9077.76
2018-08-11T10:34:23.422Z,10321.92
2018-08-11T10:35:25.195Z,22302.72
2018-08-11T10:36:25.971Z,58613.76
2018-08-11T10:37:26.742Z,10091.52
2018-08-11T10:38:27.544Z,60456.96
2018-08-11T10:39:28.313Z,61194.24
2018-08-11T10:40:29.093Z,62300.16
2018-08-11T10:41:29.868Z,64143.36
2018-08-11T10:42:30.643Z,62668.80
2018-08-11T10:43:31.442Z,63037.44
2018-08-11T10:44:32.214Z,63774.72
2018-08-11T10:45:32.997Z,64880.64
2018-08-11T10:46:33.761Z,65249.28
2018-08-11T10:47:34.533Z,65617.92
2018-08-11T10:48:35.336Z,65617.92
2018-08-11T10:49:36.104Z,66355.20
2018-08-11T10:50:37.124Z,15575.04
2018-08-11T10:51:37.073Z,11566.08
2018-08-11T10:52:37.928Z,64143.36
2018-08-11T10:53:40.029Z,63037.44
2018-08-11T10:54:38.725Z,63406.08
2018-08-11T10:55:40.507Z,63406.08
2018-08-11T10:56:41.276Z,64512.00
2018-08-11T10:57:42.054Z,17233.92
2018-08-11T10:58:42.885Z,21657.60
2018-08-11T10:59:43.631Z,65617.92
2018-08-11T11:00:44.398Z,65249.28
2018-08-11T11:01:45.184Z,12165.12
2018-08-11T11:02:45.982Z,49397.76
2018-08-11T11:03:46.820Z,64143.36
2018-08-11T11:04:46.633Z,65986.56
2018-08-11T11:05:47.458Z,67461.12
2018-08-11T11:06:48.273Z,62300.16
2018-08-11T11:07:49.017Z,23040.00
2018-08-11T11:08:51.544Z,21012.48
2018-08-11T11:09:51.348Z,12902.40
2018-08-11T11:10:51.168Z,13547.52
2018-08-11T11:11:51.911Z,16220.16
2018-08-11T11:12:53.702Z,63774.72
2018-08-11T11:13:55.595Z,15851.52
2018-08-11T11:14:55.368Z,10460.16
2018-08-11T11:15:56.141Z,9262.08
2018-08-11T11:16:56.914Z,9031.68
2018-08-11T11:17:57.687Z,9262.08
2018-08-11T11:18:58.484Z,9630.72
2018-08-11T11:19:59.267Z,9999.36
2018-08-11T11:21:00.037Z,11980.80
2018-08-11T11:22:00.853Z,64880.64
2018-08-11T11:23:00.616Z,64880.64
2018-08-11T11:24:02.422Z,64512.00
2018-08-11T11:25:03.202Z,65617.92
2018-08-11T11:26:04.350Z,63774.72
2018-08-11T11:31:05.553Z,69304.32
2018-08-11T11:32:06.325Z,21104.64
2018-08-11T11:33:07.122Z,23961.60
2018-08-11T11:34:07.862Z,64512.00
2018-08-11T11:35:08.900Z,47554.56
2018-08-11T11:36:08.674Z,40366.08
2018-08-11T11:37:09.842Z,33914.88
2018-08-11T11:38:09.660Z,16220.16
2018-08-11T11:39:11.433Z,21012.48
2018-08-11T11:40:12.231Z,32808.96
2018-08-11T11:41:13.180Z,49766.40
2018-08-11T11:42:13.040Z,57876.48
2018-08-11T11:43:13.740Z,62668.80
2018-08-11T11:44:15.508Z,64512.00
2018-08-11T11:45:16.318Z,61931.52
2018-08-11T11:46:17.085Z,60825.60
2018-08-11T11:47:17.858Z,62300.16
2018-08-11T11:48:18.632Z,61931.52
2018-08-11T11:49:19.405Z,62300.16
2018-08-11T11:50:20.203Z,60825.60
2018-08-11T11:51:20.974Z,60088.32
2018-08-11T11:52:21.749Z,60456.96
2018-08-11T11:53:22.517Z,62668.80
2018-08-11T11:54:23.288Z,49766.40
2018-08-11T11:55:24.090Z,64880.64
2018-08-11T11:56:24.859Z,65249.28
2018-08-11T11:57:25.634Z,65249.28
2018-08-11T11:58:26.406Z,65617.92
2018-08-11T11:59:27.182Z,63774.72
2018-08-11T12:00:27.980Z,64143.36
2018-08-11T12:01:28.751Z,63037.44
2018-08-11T12:02:29.524Z,61562.88
2018-08-11T12:03:30.295Z,60088.32
2018-08-11T12:04:31.068Z,60456.96
2018-08-11T12:05:32.859Z,61562.88
2018-08-11T12:06:32.633Z,62668.80
2018-08-11T12:07:33.404Z,62300.16
2018-08-11T12:08:34.177Z,54558.72
2018-08-11T12:09:34.961Z,64143.36
2018-08-11T12:10:35.762Z,63774.72
2018-08-11T12:11:36.538Z,63406.08
2018-08-11T12:12:37.308Z,63037.44
2018-08-11T12:13:38.084Z,10920.96
2018-08-11T12:14:38.857Z,10552.32
2018-08-11T12:15:39.659Z,17971.20
2018-08-11T12:16:40.431Z,13455.36
2018-08-11T12:17:41.206Z,20643.84
2018-08-11T12:18:41.983Z,60088.32
2018-08-11T12:19:42.752Z,14100.48
2018-08-11T12:20:43.552Z,13916.16
2018-08-11T12:21:44.322Z,12902.40
2018-08-11T12:22:45.186Z,12072.96
2018-08-11T12:23:44.879Z,16865.28
2018-08-11T12:24:46.652Z,63406.08
2018-08-11T12:25:47.453Z,19077.12
2018-08-11T12:26:48.225Z,65617.92
2018-08-11T12:27:48.997Z,62668.80
2018-08-11T12:28:49.777Z,60825.60
2018-08-11T12:29:50.536Z,56770.56
2018-08-11T12:30:51.338Z,60088.32
2018-08-11T12:31:52.144Z,58982.40
2018-08-11T12:32:51.876Z,57876.48
2018-08-11T12:33:53.656Z,56770.56
2018-08-11T12:34:54.426Z,57139.20
2018-08-11T12:35:55.229Z,10644.48
2018-08-11T12:36:55.999Z,10045.44
2018-08-11T12:37:56.856Z,10828.80
2018-08-11T12:38:56.588Z,12349.44
2018-08-11T12:39:58.470Z,64512.00
2018-08-11T12:40:58.217Z,16496.64
2018-08-11T12:41:59.989Z,51240.96